A 511 Airport
RKSG : now visible

Airfield :











YOU CAN JOIN US ON...

 
LOGIN :

Register | Disclaimer

   EN    FR    IT 

 









Legend :    VFR   Marginal VFR   IFR   Intensive IFR   Very Intensive IFR
Visi :
Ceiling :
>= 8 km
>= 3000ft
5 to 8 km
1000 to 3000 ft
1500m to 5 km
500 to 1000 ft
800 to 1500m
200 to 500 ft
< 800m
< 200 ft
Symbols :   Thunderstorms  Fog  Heavy snow  Heavy precipitations  Wind > 20 kt







- Airport Elevation : 51 ft


RKSG - A 511

CURRENT METAR :
  • 261856Z 03002KT 4SM BR OVC031 21/19 A2960 RMK AO2A SLP022 WND DATA ESTMD ALSTG/SLP ESTMD $

EXPIRED METARs :
  • 261756Z 09003KT 4SM BR OVC033 21/19 A2961 RMK AO2A SLP024 WND DATA ESTMD ALSTG/SLP ESTMD 60030 10263 20204 57021 $
  • 261656Z 10004KT 4SM BR FEW019 OVC035 21/19 A2962 RMK AO2A SLP029 WND DATA ESTMD ALSTG/SLP ESTMD $

TAF TAF RKSG
Valid from the 26 at 19:00 until the 28 at 01:00 UTC


261900Z 2619/2801 09006KT 6000 BR FEW020 BKN030 QNH2958INS
TEMPO 2621/2624 BKN008
BECMG 2700/2701 05005KT 6000 BR SCT010 BKN020 QNH2952INS
BECMG 2703/2704 35009KT 8000 BR FEW015 BKN025 QNH2948INS
BECMG 2708/2709 29012KT 8000 HZ SCT050 QNH2946INS
BECMG 2711/2712 VRB06KT 8000 HZ FEW020 SCT070 QNH2947INS
BECMG 2719/2720 VRB03KT 4800 BR BKN020 OVC070 QNH2952INS TX27/2706Z TN20/2620Z
No reported NOTAMs for that airfield.



MET'MAP, your aeronautical weather chart ! - Copyright ORBIFLY December 2007 - Disclaimer

ORBIFLY MET'MAP TEAM :

Programming & Development : Alexandra Zaïnal
Concept & Development : Baudouin d'Aumeries
Co-Development & Prog : Marc-Olivier Méhu
Technical & hardware support : Manuel Goepfert

Contact : metmap@orbifly.com




SOURCES & CREDITS :

   NOAA       Earth
Advisory